Time;durP1;ratioP1;P1;durP2;ratioP2;P2;SDS_P1;SDS_P2;PMS_P1;PMS_P2;Temp;Humidity;BMP_temperature;BMP_pressure;BME280_temperature;BME280_humidity;BME280_pressure;Samples;Min_cycle;Max_cycle;Signal;HPM_P1;HPM_P2
2022/03/12 00:00:01;;;;;;;14.77;13.17;;;;;;;6.05;74.66;100373.75;4988912;28;20646;-56
2022/03/12 00:02:32;;;;;;;15.30;13.67;;;;;;;6.07;74.94;100378.91;4986956;28;20688;-57
2022/03/12 00:04:58;;;;;;;14.57;13.00;;;;;;;6.05;75.20;100378.91;4984451;28;20621;-56
2022/03/12 00:07:23;;;;;;;15.00;13.20;;;;;;;6.07;77.10;100381.47;4982270;28;20229;-55
2022/03/12 00:09:50;;;;;;;16.60;13.90;;;;;;;6.07;78.05;100378.91;4984177;28;20206;-56
2022/03/12 00:12:17;;;;;;;14.37;12.90;;;;;;;6.08;78.79;100393.47;4987427;28;20233;-57
2022/03/12 00:14:45;;;;;;;14.40;12.90;;;;;;;6.07;79.57;100382.34;4985050;28;20217;-55
2022/03/12 00:17:11;;;;;;;14.63;12.20;;;;;;;6.07;79.66;100390.06;4982059;28;20210;-58
2022/03/12 00:19:36;;;;;;;14.90;13.30;;;;;;;6.05;79.60;100398.59;4985313;28;20229;-56
2022/03/12 00:22:04;;;;;;;15.10;12.80;;;;;;;6.03;79.69;100403.72;4985455;28;20219;-55
2022/03/12 00:24:29;;;;;;;14.43;12.93;;;;;;;5.99;79.33;100401.91;4984631;28;20237;-56
2022/03/12 00:26:55;;;;;;;16.83;14.13;;;;;;;5.90;79.00;100406.94;4983542;28;20187;-57
2022/03/12 00:29:21;;;;;;;16.97;14.13;;;;;;;5.82;78.95;100404.28;4981745;28;20198;-55
2022/03/12 00:31:50;;;;;;;17.27;14.77;;;;;;;5.80;79.18;100409.41;4989020;28;20765;-56
2022/03/12 00:34:18;;;;;;;14.87;13.30;;;;;;;5.80;79.39;100411.09;4984884;28;20210;-56
2022/03/12 00:36:44;;;;;;;13.87;12.47;;;;;;;5.79;79.81;100409.38;4987846;28;20247;-56
2022/03/12 00:39:11;;;;;;;16.27;13.33;;;;;;;5.80;79.95;100416.25;4988990;28;20667;-56
2022/03/12 00:41:38;;;;;;;15.93;13.07;;;;;;;5.78;80.14;100415.34;4985786;28;20273;-56
2022/03/12 00:44:05;;;;;;;14.70;13.10;;;;;;;5.77;80.35;100419.63;4988339;28;20224;-57
2022/03/12 00:46:30;;;;;;;13.60;12.13;;;;;;;5.77;80.60;100422.22;4992368;28;20670;-56
2022/03/12 00:48:55;;;;;;;15.03;13.17;;;;;;;5.75;80.71;100423.88;4988371;28;20297;-55
2022/03/12 00:51:21;;;;;;;15.37;13.77;;;;;;;5.73;80.49;100420.44;4985899;28;20197;-56
2022/03/12 00:53:46;;;;;;;16.80;14.63;;;;;;;5.73;81.22;100415.28;4988587;28;20226;-56
2022/03/12 00:56:12;;;;;;;17.50;14.03;;;;;;;5.75;81.69;100421.31;4986846;28;20209;-54
2022/03/12 00:58:38;;;;;;;18.10;14.70;;;;;;;5.73;82.19;100422.16;4987724;28;20197;-56
2022/03/12 01:01:05;;;;;;;16.00;14.30;;;;;;;5.72;82.26;100423.84;4987911;28;20206;-56
2022/03/12 01:03:30;;;;;;;15.87;14.17;;;;;;;5.71;82.28;100419.53;4988979;28;20213;-55
2022/03/12 01:05:58;;;;;;;15.93;12.87;;;;;;;5.70;82.27;100420.38;4988297;28;20274;-55
2022/03/12 01:08:26;;;;;;;15.47;13.77;;;;;;;5.70;82.45;100429.81;4984761;28;20236;-56
2022/03/12 01:10:52;;;;;;;16.27;14.57;;;;;;;5.70;82.43;100422.97;4991498;28;20596;-55
2022/03/12 01:13:18;;;;;;;16.60;14.90;;;;;;;5.70;82.28;100432.38;4989335;28;20225;-55
2022/03/12 01:15:43;;;;;;;18.10;15.17;;;;;;;5.70;82.70;100427.25;4986999;28;20208;-55
2022/03/12 01:18:13;;;;;;;17.40;15.37;;;;;;;5.71;82.63;100426.41;4984989;28;20232;-58
2022/03/12 01:20:38;;;;;;;17.93;15.77;;;;;;;5.69;82.97;100426.38;4988126;28;20187;-54
2022/03/12 01:23:04;;;;;;;16.23;14.63;;;;;;;5.63;82.86;100432.28;4986061;28;20244;-56
2022/03/12 01:25:30;;;;;;;18.37;14.53;;;;;;;5.61;82.94;100440.81;4981932;28;20208;-56
2022/03/12 01:27:55;;;;;;;16.60;14.90;;;;;;;5.55;83.16;100431.34;4986868;28;20658;-55
2022/03/12 01:30:27;;;;;;;17.63;14.47;;;;;;;5.51;83.16;100432.13;4988288;28;20414;-55
2022/03/12 01:32:53;;;;;;;16.70;14.53;;;;;;;5.47;83.31;100430.34;4990626;28;20209;-54
2022/03/12 01:35:19;;;;;;;15.40;13.83;;;;;;;5.44;83.46;100436.31;4986685;28;20544;-56
2022/03/12 01:37:44;;;;;;;17.23;14.03;;;;;;;5.42;83.86;100444.84;4985725;28;20190;-55
2022/03/12 01:40:11;;;;;;;15.97;14.27;;;;;;;5.38;83.86;100437.91;4987479;28;20205;-55
2022/03/12 01:42:37;;;;;;;16.13;14.43;;;;;;;5.35;83.54;100433.63;4986167;28;20875;-56
2022/03/12 01:45:05;;;;;;;21.83;16.07;;;;;;;5.34;83.31;100447.28;4982837;28;20555;-56
2022/03/12 01:47:30;;;;;;;17.17;15.23;;;;;;;5.30;83.27;100440.38;4987085;28;20189;-55
2022/03/12 01:49:56;;;;;;;17.43;15.33;;;;;;;5.24;83.29;100442.84;4987558;28;20685;-56
2022/03/12 01:52:21;;;;;;;18.63;15.33;;;;;;;5.22;83.37;100447.09;4985485;28;20212;-55
2022/03/12 01:54:47;;;;;;;16.77;14.53;;;;;;;5.17;83.57;100435.06;4987939;28;20676;-56
2022/03/12 01:57:12;;;;;;;16.10;14.13;;;;;;;5.12;83.53;100433.25;4988285;28;20217;-57
2022/03/12 01:59:38;;;;;;;15.63;13.93;;;;;;;5.08;83.73;100439.19;4981573;28;20581;-56
2022/03/12 02:02:08;;;;;;;15.93;14.23;;;;;;;5.06;83.61;100440.84;4983252;28;20185;-56
2022/03/12 02:04:36;;;;;;;16.27;14.00;;;;;;;5.04;83.67;100456.22;4982982;28;20296;-54
2022/03/12 02:07:02;;;;;;;17.53;15.63;;;;;;;4.98;84.00;100439.03;4986903;28;20244;-55
2022/03/12 02:09:27;;;;;;;18.17;14.97;;;;;;;4.95;84.06;100451.81;4985421;28;20194;-56
2022/03/12 02:11:53;;;;;;;19.97;16.13;;;;;;;4.91;84.58;100446.59;4993635;28;20279;-57
2022/03/12 02:14:25;;;;;;;17.00;15.13;;;;;;;4.85;84.78;100455.91;4989046;28;20740;-56
2022/03/12 02:16:52;;;;;;;17.90;15.90;;;;;;;4.79;85.37;100452.38;4983488;28;20201;-56
2022/03/12 02:19:20;;;;;;;17.93;16.03;;;;;;;4.71;86.01;100449.69;4987378;28;20185;-56
2022/03/12 02:22:15;;;;;;;19.13;15.53;;;;;;;4.61;86.51;100458.91;4981282;28;20602;-56
2022/03/12 02:24:40;;;;;;;17.27;15.40;;;;;;;4.56;87.21;100456.25;4975001;28;20682;-57
2022/03/12 02:27:10;;;;;;;20.47;15.73;;;;;;;4.54;87.92;100459.63;4981395;28;20189;-57
2022/03/12 02:29:37;;;;;;;17.87;14.97;;;;;;;4.48;88.30;100455.25;4986205;28;20376;-55
2022/03/12 02:32:06;;;;;;;15.57;13.53;;;;;;;4.46;89.32;100459.50;4988619;28;20195;-56
2022/03/12 02:34:42;;;;;;;17.97;14.53;;;;;;;4.46;89.65;100468.88;4982917;28;20208;-56
2022/03/12 02:37:08;;;;;;;15.77;14.17;;;;;;;4.39;89.89;100465.31;4987246;28;20213;-57
2022/03/12 02:39:37;;;;;;;15.37;13.43;;;;;;;4.34;89.95;100470.38;4987806;28;20530;-56
2022/03/12 02:42:07;;;;;;;16.50;14.67;;;;;;;4.28;89.87;100467.69;4987269;28;20185;-56
2022/03/12 02:44:33;;;;;;;15.90;13.63;;;;;;;4.23;89.99;100477.00;4988364;28;20213;-55
2022/03/12 02:47:15;;;;;;;15.50;13.43;;;;;;;4.18;89.79;100476.88;4985140;28;20188;-56
2022/03/12 02:49:48;;;;;;;16.13;14.07;;;;;;;4.18;89.89;100479.44;4984612;28;20244;-57
2022/03/12 02:52:15;;;;;;;15.23;13.63;;;;;;;4.21;90.18;100478.66;4988143;28;20211;-55
2022/03/12 02:54:41;;;;;;;15.93;14.23;;;;;;;4.28;90.24;100475.38;4985276;28;20213;-55
2022/03/12 02:57:09;;;;;;;17.90;14.73;;;;;;;4.34;90.83;100477.19;4986454;28;20677;-55
2022/03/12 02:59:35;;;;;;;16.27;14.57;;;;;;;4.38;90.59;100473.84;4987260;28;20201;-55
2022/03/12 03:02:02;;;;;;;17.10;14.10;;;;;;;4.41;90.80;100482.44;4982004;28;20201;-54
2022/03/12 03:04:27;;;;;;;17.70;14.80;;;;;;;4.48;91.00;100482.59;4984951;28;20212;-55
2022/03/12 03:06:53;;;;;;;16.33;14.60;;;;;;;4.52;91.03;100481.81;4984060;28;20197;-55
2022/03/12 03:09:18;;;;;;;17.80;14.60;;;;;;;4.57;91.21;100490.44;4985378;28;20196;-55
2022/03/12 03:11:44;;;;;;;15.87;14.17;;;;;;;4.64;91.28;100491.41;4984892;28;20204;-56
2022/03/12 03:14:12;;;;;;;15.73;14.13;;;;;;;4.69;91.28;100489.81;4983926;28;20238;-54
2022/03/12 03:16:38;;;;;;;15.57;13.77;;;;;;;4.74;91.32;100495.91;4986769;28;20213;-54
2022/03/12 03:19:04;;;;;;;16.23;14.03;;;;;;;4.78;91.39;100484.00;4993846;28;20193;-54
2022/03/12 03:21:30;;;;;;;17.23;14.80;;;;;;;4.80;91.43;100488.28;4987541;28;20212;-56
2022/03/12 03:23:56;;;;;;;16.53;14.70;;;;;;;4.79;91.74;100493.41;4981165;28;20209;-55
2022/03/12 03:26:41;;;;;;;17.63;15.33;;;;;;;4.75;91.39;100502.75;4990576;28;20357;-56
2022/03/12 03:29:08;;;;;;;16.30;14.07;;;;;;;4.73;91.23;100505.28;4985096;28;20262;-55
2022/03/12 03:31:34;;;;;;;16.63;14.80;;;;;;;4.75;91.25;100501.88;4985086;28;20189;-55
2022/03/12 03:33:59;;;;;;;18.10;15.70;;;;;;;4.75;91.40;100497.63;4984395;28;20209;-55
2022/03/12 03:36:25;;;;;;;17.97;15.53;;;;;;;4.73;91.22;100496.72;4983985;28;20607;-56
2022/03/12 03:38:50;;;;;;;17.83;14.80;;;;;;;4.71;90.94;100501.81;4988724;28;20193;-55
2022/03/12 03:41:16;;;;;;;16.50;14.77;;;;;;;4.70;90.76;100500.06;4985913;28;20189;-55
2022/03/12 03:43:46;;;;;;;16.20;14.50;;;;;;;4.70;90.53;100506.91;4990683;28;20244;-56
2022/03/12 03:46:16;;;;;;;17.03;14.17;;;;;;;4.69;90.04;100500.06;4987342;28;20193;-57
2022/03/12 03:48:41;;;;;;;17.40;15.60;;;;;;;4.70;89.84;100500.06;4982289;28;20200;-56
2022/03/12 03:51:07;;;;;;;16.60;14.80;;;;;;;4.71;89.36;100503.53;4985368;28;20192;-55
2022/03/12 03:53:32;;;;;;;16.13;14.43;;;;;;;4.75;89.47;100505.31;4996734;28;20210;-55
2022/03/12 03:56:00;;;;;;;19.07;15.57;;;;;;;4.78;89.66;100505.34;4985660;28;20240;-54
2022/03/12 03:58:26;;;;;;;19.93;16.50;;;;;;;4.81;90.79;100494.31;4981767;28;20200;-56
2022/03/12 04:00:55;;;;;;;18.00;15.67;;;;;;;4.78;91.53;100502.78;4982316;28;20296;-55
2022/03/12 04:03:21;;;;;;;17.93;15.97;;;;;;;4.78;91.60;100517.31;4983779;28;20931;-56
2022/03/12 04:05:47;;;;;;;17.33;15.53;;;;;;;4.80;91.21;100523.34;4984656;28;20198;-53
2022/03/12 04:08:12;;;;;;;16.60;14.80;;;;;;;4.83;91.40;100513.16;4985282;28;20224;-56
2022/03/12 04:10:38;;;;;;;16.50;14.53;;;;;;;4.89;91.35;100523.50;4987300;28;20241;-55
2022/03/12 04:13:12;;;;;;;16.40;14.37;;;;;;;4.93;91.48;100532.09;4990058;28;20533;-56
2022/03/12 04:15:38;;;;;;;16.77;15.03;;;;;;;4.97;91.76;100531.34;4987641;28;20208;-55
2022/03/12 04:18:04;;;;;;;17.40;14.67;;;;;;;5.00;91.61;100527.13;4988430;28;20220;-54
2022/03/12 04:20:30;;;;;;;16.33;14.20;;;;;;;5.02;91.45;100537.41;4987379;28;20197;-55
2022/03/12 04:22:56;;;;;;;15.47;13.80;;;;;;;5.04;91.37;100548.56;4987045;28;20797;-54
2022/03/12 04:25:21;;;;;;;15.40;13.73;;;;;;;5.06;91.60;100554.59;4987161;28;20273;-55
2022/03/12 04:27:47;;;;;;;16.33;14.07;;;;;;;5.06;91.86;100553.72;4988879;28;20194;-56
2022/03/12 04:30:18;;;;;;;16.73;14.70;;;;;;;5.04;92.26;100556.28;4989444;28;20271;-56
2022/03/12 04:32:43;;;;;;;16.20;14.30;;;;;;;5.03;92.48;100559.66;4986328;28;20216;-55
2022/03/12 04:35:09;;;;;;;15.63;14.03;;;;;;;5.01;92.45;100563.91;4992603;28;20181;-56
2022/03/12 04:37:36;;;;;;;16.83;14.10;;;;;;;4.99;92.24;100571.56;4983913;28;20241;-56
2022/03/12 04:40:10;;;;;;;14.43;12.93;;;;;;;5.02;91.92;100568.19;4987725;28;20203;-55
2022/03/12 04:42:38;;;;;;;15.30;13.70;;;;;;;5.02;91.67;100565.63;4990744;28;20210;-54
2022/03/12 04:45:04;;;;;;;16.83;14.93;;;;;;;5.03;91.35;100568.22;4991486;28;20194;-57
2022/03/12 04:47:30;;;;;;;16.67;14.97;;;;;;;5.01;90.92;100569.03;4998012;28;20225;-55
2022/03/12 04:49:56;;;;;;;16.93;15.13;;;;;;;4.96;90.54;100568.06;4986944;28;20280;-57
2022/03/12 04:52:22;;;;;;;18.67;16.70;;;;;;;4.87;89.25;100561.06;4984324;28;20202;-55
2022/03/12 04:54:47;;;;;;;18.07;15.27;;;;;;;4.78;89.01;100564.31;4982924;28;20327;-56
2022/03/12 04:57:12;;;;;;;19.37;16.63;;;;;;;4.72;89.49;100562.50;4992219;28;20295;-56
2022/03/12 04:59:38;;;;;;;17.90;16.00;;;;;;;4.67;89.91;100564.13;4994562;28;20189;-56
2022/03/12 05:02:04;;;;;;;17.07;15.10;;;;;;;4.62;90.28;100569.97;4992619;28;20194;-54
2022/03/12 05:04:29;;;;;;;18.87;16.77;;;;;;;4.58;90.82;100569.06;4992340;28;20719;-52
2022/03/12 05:06:54;;;;;;;21.33;15.40;;;;;;;4.59;91.18;100568.22;4991427;28;20195;-55
2022/03/12 05:09:20;;;;;;;19.67;16.13;;;;;;;4.57;91.82;100565.66;4988013;28;20184;-55
2022/03/12 05:11:45;;;;;;;18.33;16.33;;;;;;;4.56;92.39;100556.22;4990610;28;20219;-55
2022/03/12 05:14:15;;;;;;;19.97;15.87;;;;;;;4.54;93.29;100552.75;4997741;28;20697;-56
2022/03/12 05:16:43;;;;;;;20.93;16.93;;;;;;;4.46;92.87;100574.81;4989670;28;20304;-56
2022/03/12 05:19:09;;;;;;;18.80;16.77;;;;;;;4.39;93.16;100580.63;4988895;28;20319;-60
2022/03/12 05:21:34;;;;;;;19.67;16.67;;;;;;;4.36;93.28;100588.25;4989891;28;20279;-56
2022/03/12 05:24:00;;;;;;;19.00;16.80;;;;;;;4.34;93.77;100587.34;4993643;28;20294;-55
2022/03/12 05:26:25;;;;;;;18.13;16.27;;;;;;;4.32;94.03;100592.47;4995407;28;20219;-56
2022/03/12 05:28:50;;;;;;;18.10;15.80;;;;;;;4.30;94.08;100589.00;4990675;28;20196;-54
2022/03/12 05:31:17;;;;;;;18.03;15.57;;;;;;;4.27;94.08;100594.94;4991842;28;20191;-55
2022/03/12 05:33:42;;;;;;;17.70;15.73;;;;;;;4.26;94.42;100595.75;4993083;28;20213;-56
2022/03/12 05:36:08;;;;;;;17.60;15.27;;;;;;;4.23;94.18;100593.13;4995031;28;20200;-55
2022/03/12 05:38:36;;;;;;;16.23;14.53;;;;;;;4.21;94.46;100587.09;4997564;28;20197;-56
2022/03/12 05:41:11;;;;;;;17.40;15.03;;;;;;;4.22;94.48;100580.28;4992080;28;20184;-55
2022/03/12 05:43:46;;;;;;;17.33;15.43;;;;;;;4.21;93.97;100588.81;4988923;28;20292;-55
2022/03/12 05:46:14;;;;;;;16.97;15.17;;;;;;;4.23;94.40;100582.88;5001773;28;20575;-55
2022/03/12 05:48:41;;;;;;;17.93;15.63;;;;;;;4.26;94.56;100584.63;4996650;28;20645;-54
2022/03/12 05:51:08;;;;;;;18.50;15.13;;;;;;;4.31;94.94;100583.03;4994029;28;20241;-54
2022/03/12 05:53:34;;;;;;;19.70;16.50;;;;;;;4.36;95.34;100578.00;4995781;28;20240;-57
2022/03/12 05:55:59;;;;;;;19.70;15.97;;;;;;;4.38;95.10;100572.09;4989300;28;20198;-53
2022/03/12 05:58:26;;;;;;;17.80;15.47;;;;;;;4.41;94.60;100576.41;4989308;28;20627;-56
2022/03/12 06:00:54;;;;;;;17.27;15.30;;;;;;;4.44;94.51;100581.63;4989062;28;20185;-57
2022/03/12 06:03:24;;;;;;;18.07;15.50;;;;;;;4.51;94.51;100586.00;4992981;28;20204;-55
2022/03/12 06:05:56;;;;;;;17.90;15.17;;;;;;;4.55;94.07;100587.81;4997397;28;20680;-54
2022/03/12 06:08:22;;;;;;;18.63;15.17;;;;;;;4.61;93.60;100589.63;4988802;28;20225;-55
2022/03/12 06:10:54;;;;;;;18.07;16.17;;;;;;;4.69;93.31;100587.22;4992225;28;20196;-55
2022/03/12 06:13:23;;;;;;;16.20;14.50;;;;;;;4.74;92.47;100588.19;4989225;28;20210;-55
2022/03/12 06:15:52;;;;;;;19.17;16.53;;;;;;;4.86;91.98;100592.69;5003954;28;20205;-55
2022/03/12 06:18:17;;;;;;;17.57;15.77;;;;;;;4.99;92.17;100586.94;4993592;28;20198;-56
2022/03/12 06:20:43;;;;;;;18.03;16.13;;;;;;;5.13;92.20;100589.78;4988231;28;20664;-56
2022/03/12 06:23:08;;;;;;;18.30;15.53;;;;;;;5.29;92.04;100590.94;4988534;28;20303;-55
2022/03/12 06:25:34;;;;;;;21.23;15.33;;;;;;;5.51;91.99;100595.56;4994508;28;20198;-55
2022/03/12 06:28:03;;;;;;;18.97;15.77;;;;;;;5.69;91.39;100593.28;4988665;28;20621;-55
2022/03/12 06:30:29;;;;;;;18.37;15.33;;;;;;;5.88;91.09;100596.13;4993493;28;20355;-55
2022/03/12 06:32:57;;;;;;;16.40;14.50;;;;;;;6.03;90.51;100601.53;4995401;28;20634;-55
2022/03/12 06:35:24;;;;;;;17.03;14.90;;;;;;;6.08;90.39;100607.63;4996735;28;20203;-56
2022/03/12 06:37:50;;;;;;;15.73;14.03;;;;;;;6.13;90.39;100601.66;4997562;28;20269;-56
2022/03/12 06:40:16;;;;;;;20.60;15.23;;;;;;;6.19;90.22;100605.22;4988917;28;20209;-55
2022/03/12 06:42:47;;;;;;;21.93;16.50;;;;;;;6.18;89.42;100606.06;4987096;28;20221;-56
2022/03/12 06:45:16;;;;;;;20.27;16.30;;;;;;;6.11;88.17;100604.22;4988686;28;20200;-55
2022/03/12 06:47:46;;;;;;;17.30;15.50;;;;;;;6.09;88.42;100606.78;4990141;28;20691;-55
2022/03/12 06:50:17;;;;;;;19.97;15.97;;;;;;;6.13;87.98;100601.66;4983970;28;20281;-55
2022/03/12 06:52:47;;;;;;;19.10;16.23;;;;;;;6.12;86.99;100594.81;4984307;28;20215;-56
2022/03/12 06:55:13;;;;;;;17.60;15.77;;;;;;;6.05;85.94;100594.72;4991450;28;20234;-55
2022/03/12 06:57:38;;;;;;;23.20;16.33;;;;;;;6.00;85.49;100595.50;4985296;28;20309;-56
2022/03/12 07:00:06;;;;;;;24.63;16.40;;;;;;;5.96;84.50;100612.53;4984750;28;20544;-55
2022/03/12 07:02:31;;;;;;;20.20;16.17;;;;;;;5.93;84.29;100605.63;4986168;28;20414;-56
2022/03/12 07:04:56;;;;;;;18.87;16.17;;;;;;;5.91;83.07;100599.59;4981958;28;20280;-56
2022/03/12 07:07:22;;;;;;;17.40;15.43;;;;;;;5.89;83.03;100597.88;4986829;28;20251;-55
2022/03/12 07:09:47;;;;;;;19.00;15.63;;;;;;;5.89;82.29;100600.44;4983268;28;20193;-56
2022/03/12 07:12:13;;;;;;;17.90;16.00;;;;;;;5.91;82.56;100603.91;4979300;28;20225;-57
2022/03/12 07:14:38;;;;;;;18.67;15.40;;;;;;;5.94;82.25;100604.81;4980108;28;20775;-58
2022/03/12 07:17:04;;;;;;;19.13;15.13;;;;;;;6.00;81.89;100593.78;4985234;28;20576;-55
2022/03/12 07:19:30;;;;;;;20.10;15.60;;;;;;;6.03;80.27;100595.56;4984059;28;20198;-55
2022/03/12 07:21:55;;;;;;;17.40;15.40;;;;;;;6.07;79.85;100597.31;4981418;28;20556;-57
2022/03/12 07:24:21;;;;;;;19.80;15.33;;;;;;;6.15;79.48;100605.13;4986512;28;21884;-56
2022/03/12 07:26:46;;;;;;;18.77;15.53;;;;;;;6.27;79.39;100601.88;4995606;28;20192;-55
2022/03/12 07:29:12;;;;;;;17.47;15.67;;;;;;;6.40;78.95;100598.63;4990931;28;20275;-57
2022/03/12 07:31:38;;;;;;;16.10;14.40;;;;;;;6.56;78.44;100608.25;4993622;28;20538;-55
2022/03/12 07:34:04;;;;;;;15.77;14.10;;;;;;;6.75;78.09;100610.19;4984100;28;20219;-54
2022/03/12 07:36:30;;;;;;;16.90;15.10;;;;;;;6.93;76.93;100610.41;4993672;28;20218;-55
2022/03/12 07:38:58;;;;;;;16.60;14.80;;;;;;;7.07;76.23;100602.84;4984538;28;20198;-56
2022/03/12 07:41:24;;;;;;;16.87;14.90;;;;;;;7.21;75.58;100608.13;4989868;28;20217;-56
2022/03/12 07:43:50;;;;;;;16.60;14.77;;;;;;;7.34;74.81;100603.97;4984766;28;20218;-57
2022/03/12 07:46:15;;;;;;;19.23;15.90;;;;;;;7.44;73.55;100592.88;4988822;28;20222;-56
2022/03/12 07:48:41;;;;;;;18.90;15.87;;;;;;;7.59;72.77;100599.00;4987494;28;20200;-56
2022/03/12 07:51:07;;;;;;;17.07;15.23;;;;;;;7.66;72.57;100598.22;4988755;28;20195;-57
2022/03/12 07:53:33;;;;;;;16.13;14.43;;;;;;;7.74;72.62;100588.84;4984944;28;20712;-56
2022/03/12 07:55:59;;;;;;;16.80;15.00;;;;;;;7.88;72.53;100599.25;4983008;28;20705;-55
2022/03/12 07:58:27;;;;;;;16.20;13.90;;;;;;;8.01;72.59;100599.34;4982498;28;20199;-55
2022/03/12 08:00:56;;;;;;;18.33;14.90;;;;;;;8.05;71.77;100604.50;4987711;28;20791;-55
2022/03/12 08:03:23;;;;;;;17.13;15.33;;;;;;;8.18;71.84;100608.03;4986381;28;20261;-55
2022/03/12 08:05:49;;;;;;;16.13;14.43;;;;;;;8.32;71.64;100602.09;4988132;28;20194;-54
2022/03/12 08:08:14;;;;;;;15.43;13.83;;;;;;;8.43;71.26;100597.84;4990118;28;20202;-55
2022/03/12 08:13:23;;;;;;;16.03;14.13;;;;;;;8.63;70.91;100602.28;4996985;28;20242;-56
2022/03/12 08:15:49;;;;;;;16.80;15.00;;;;;;;8.76;70.15;100605.78;4987423;28;20211;-55
2022/03/12 08:18:16;;;;;;;17.67;15.07;;;;;;;8.93;69.46;100616.16;4992682;28;20200;-55
2022/03/12 08:20:41;;;;;;;18.37;15.60;;;;;;;9.07;69.24;100609.28;4988181;28;20196;-55
2022/03/12 08:23:08;;;;;;;17.37;14.80;;;;;;;9.13;68.27;100614.50;4997281;28;20216;-55
2022/03/12 08:25:33;;;;;;;19.00;16.07;;;;;;;9.26;68.13;100611.94;4982776;28;20276;-54
2022/03/12 08:27:59;;;;;;;18.40;16.07;;;;;;;9.41;67.80;100616.25;4981212;28;20306;-56
2022/03/12 08:30:24;;;;;;;17.57;15.77;;;;;;;9.55;67.29;100617.09;4986195;28;20192;-57
2022/03/12 08:32:50;;;;;;;18.70;16.70;;;;;;;9.69;66.28;100611.06;4985563;28;20225;-56
2022/03/12 08:35:16;;;;;;;16.47;14.67;;;;;;;9.80;66.74;100618.84;4987160;28;20628;-55
2022/03/12 08:37:42;;;;;;;17.60;14.97;;;;;;;9.97;66.47;100622.28;4986060;28;20654;-55
2022/03/12 08:40:08;;;;;;;17.07;15.27;;;;;;;9.89;66.23;100617.13;4982519;28;20220;-56
2022/03/12 08:42:34;;;;;;;16.20;14.50;;;;;;;10.01;66.19;100624.00;4984183;28;20683;-56
2022/03/12 08:45:00;;;;;;;16.37;14.67;;;;;;;10.05;65.98;100623.16;4986897;28;20198;-56
2022/03/12 08:47:25;;;;;;;17.63;15.80;;;;;;;10.22;66.08;100623.09;4986474;28;20208;-55
2022/03/12 08:49:51;;;;;;;19.10;16.17;;;;;;;10.39;65.48;100621.34;4990331;28;20280;-55
2022/03/12 08:52:16;;;;;;;19.80;16.13;;;;;;;10.54;64.86;100626.47;4993225;28;20677;-54
2022/03/12 08:54:41;;;;;;;16.90;14.93;;;;;;;10.62;64.73;100629.03;4985357;28;20224;-55
2022/03/12 08:57:07;;;;;;;16.80;15.10;;;;;;;10.74;64.62;100626.41;4988579;28;20212;-55
2022/03/12 08:59:33;;;;;;;17.03;15.33;;;;;;;10.86;64.21;100625.50;4985913;28;20721;-57
2022/03/12 09:01:58;;;;;;;17.10;15.37;;;;;;;10.90;63.72;100623.75;4988227;28;20217;-57
2022/03/12 09:04:24;;;;;;;19.17;16.77;;;;;;;10.66;64.10;100626.44;4983959;28;20272;-55
2022/03/12 09:06:49;;;;;;;18.53;16.53;;;;;;;10.65;64.57;100622.16;4984645;28;20276;-55
2022/03/12 09:09:15;;;;;;;20.43;16.93;;;;;;;10.54;63.86;100615.28;4990787;28;20195;-54
2022/03/12 09:11:41;;;;;;;19.53;17.17;;;;;;;10.35;64.24;100626.53;4988828;28;20239;-57
2022/03/12 09:14:06;;;;;;;18.40;16.40;;;;;;;10.47;64.50;100624.81;4994838;28;20750;-56
2022/03/12 09:16:32;;;;;;;17.00;15.00;;;;;;;10.57;64.59;100625.63;4995654;28;20220;-57
2022/03/12 09:18:57;;;;;;;20.10;15.63;;;;;;;10.62;64.30;100629.03;4993487;28;20190;-55
2022/03/12 09:21:24;;;;;;;19.07;17.00;;;;;;;10.61;64.15;100624.72;4993195;28;20275;-55
2022/03/12 09:23:49;;;;;;;18.23;16.20;;;;;;;10.61;64.20;100638.56;4995597;28;20212;-55
2022/03/12 09:26:17;;;;;;;17.93;16.17;;;;;;;10.82;64.50;100628.97;5007985;28;20711;-56
2022/03/12 09:28:42;;;;;;;18.50;16.57;;;;;;;11.00;64.09;100620.25;4986513;28;20227;-56
2022/03/12 09:31:09;;;;;;;18.57;16.57;;;;;;;11.22;63.60;100613.22;4980147;28;20278;-56
2022/03/12 09:33:35;;;;;;;17.43;15.73;;;;;;;11.39;63.10;100628.66;4985711;28;20662;-54
2022/03/12 09:36:01;;;;;;;18.07;16.17;;;;;;;11.52;63.23;100624.25;4986706;28;20259;-55
2022/03/12 09:38:27;;;;;;;18.97;17.03;;;;;;;11.26;62.50;100627.00;4987325;28;20197;-56
2022/03/12 09:40:53;;;;;;;18.40;16.40;;;;;;;11.40;62.53;100607.03;4985326;28;20545;-55
2022/03/12 09:43:19;;;;;;;17.70;15.73;;;;;;;11.65;62.57;100600.81;4986109;28;20283;-55
2022/03/12 09:45:44;;;;;;;18.27;16.23;;;;;;;11.82;62.34;100606.72;4983938;28;20317;-56
2022/03/12 09:48:10;;;;;;;18.90;17.00;;;;;;;11.87;61.72;100610.09;4982209;28;20190;-56
2022/03/12 09:50:36;;;;;;;18.20;16.13;;;;;;;11.81;61.97;100611.91;4989222;28;20200;-56
2022/03/12 09:53:01;;;;;;;19.07;16.63;;;;;;;11.86;62.39;100612.72;4986699;28;20380;-55
2022/03/12 09:55:27;;;;;;;16.57;14.87;;;;;;;12.11;62.11;100609.91;4989918;28;20205;-55
2022/03/12 09:57:52;;;;;;;16.97;15.27;;;;;;;12.38;61.88;100610.53;4984770;28;20204;-56
2022/03/12 10:00:18;;;;;;;17.17;15.37;;;;;;;12.67;61.08;100614.50;4987710;28;20228;-56
2022/03/12 10:02:44;;;;;;;16.87;15.13;;;;;;;12.86;60.80;100610.78;4987897;28;20299;-56
2022/03/12 10:05:13;;;;;;;16.97;15.23;;;;;;;13.09;60.57;100607.88;4985869;28;20267;-55
2022/03/12 10:07:41;;;;;;;18.57;16.57;;;;;;;13.26;60.45;100604.16;4984411;28;20308;-56
2022/03/12 10:10:18;;;;;;;17.87;16.07;;;;;;;13.51;60.02;100596.03;4984673;28;20215;-56
2022/03/12 10:12:44;;;;;;;17.23;15.53;;;;;;;13.66;59.47;100587.09;4982030;28;20218;-56
2022/03/12 10:15:11;;;;;;;18.83;16.53;;;;;;;13.79;59.11;100588.59;4984060;28;20184;-55
2022/03/12 10:17:37;;;;;;;18.07;16.27;;;;;;;14.03;58.87;100583.88;4989773;28;20222;-56
2022/03/12 10:20:03;;;;;;;19.00;16.90;;;;;;;13.95;58.28;100580.53;4984995;28;20705;-56
2022/03/12 10:22:29;;;;;;;18.20;16.30;;;;;;;14.04;58.37;100572.56;4985505;28;20280;-55
2022/03/12 10:24:54;;;;;;;19.07;17.07;;;;;;;14.16;58.24;100581.88;4984586;28;20550;-57
2022/03/12 10:27:20;;;;;;;20.00;16.90;;;;;;;14.31;58.31;100572.91;4985479;28;20279;-55
2022/03/12 10:29:45;;;;;;;18.37;16.47;;;;;;;14.15;57.68;100570.63;4991966;28;20271;-56
2022/03/12 10:32:25;;;;;;;18.70;16.70;;;;;;;14.17;57.79;100571.44;4985031;28;20666;-56
2022/03/12 10:34:56;;;;;;;18.23;16.17;;;;;;;14.51;57.03;100571.66;4985420;28;20200;-57
2022/03/12 10:37:24;;;;;;;18.80;16.83;;;;;;;14.32;57.22;100564.22;4987298;28;20217;-56
2022/03/12 10:40:20;;;;;;;19.20;17.17;;;;;;;14.36;57.65;100563.28;4988532;28;20246;-57
2022/03/12 10:42:45;;;;;;;18.23;16.33;;;;;;;14.55;57.38;100552.47;4987192;28;20596;-56
2022/03/12 10:45:13;;;;;;;18.20;16.40;;;;;;;14.37;57.56;100557.16;4994435;28;20192;-56
2022/03/12 10:47:40;;;;;;;18.77;16.87;;;;;;;14.40;57.94;100554.50;4991652;28;20177;-55
2022/03/12 10:50:11;;;;;;;17.40;15.60;;;;;;;14.53;58.08;100564.66;4993595;28;20190;-56
2022/03/12 10:52:43;;;;;;;18.87;16.97;;;;;;;14.84;57.52;100558.81;4988904;28;20215;-56
2022/03/12 10:55:15;;;;;;;21.17;17.17;;;;;;;14.88;57.29;100555.25;4985437;28;20615;-55
2022/03/12 10:58:07;;;;;;;18.50;15.43;;;;;;;14.99;57.29;100555.84;4983780;28;20288;-56
2022/03/12 11:00:39;;;;;;;16.80;15.10;;;;;;;14.65;58.27;100554.00;4983151;28;20196;-55
2022/03/12 11:03:11;;;;;;;16.37;14.77;;;;;;;14.71;58.44;100548.66;4983136;28;20223;-55
2022/03/12 11:05:37;;;;;;;16.77;15.07;;;;;;;14.60;58.65;100546.25;4984541;28;20185;-55
2022/03/12 11:08:16;;;;;;;18.37;14.60;;;;;;;14.52;58.92;100542.97;4985804;28;20213;-56
2022/03/12 11:10:50;;;;;;;17.70;15.80;;;;;;;14.39;59.51;100557.16;4985750;28;20192;-56
2022/03/12 11:13:34;;;;;;;15.70;14.10;;;;;;;14.15;60.15;100547.19;4981355;28;20307;-54
2022/03/12 11:16:07;;;;;;;14.37;12.90;;;;;;;14.35;59.99;100539.88;4982794;28;20205;-54